createdAt,value
2017-03-13T00:07:59.258Z,18
2017-03-13T00:17:59.280Z,13
2017-03-13T00:27:59.887Z,15
2017-03-13T00:38:00.072Z,17
2017-03-13T00:48:01.252Z,19
2017-03-13T00:57:59.236Z,16
2017-03-13T01:07:59.415Z,15
2017-03-13T01:17:59.196Z,20
2017-03-13T01:27:59.296Z,17
2017-03-13T01:37:59.231Z,17
2017-03-13T01:47:59.249Z,17
2017-03-13T01:57:59.233Z,17
2017-03-13T02:07:59.282Z,18
2017-03-13T02:17:59.354Z,18
2017-03-13T02:27:59.349Z,19
2017-03-13T02:37:59.399Z,22
2017-03-13T02:47:59.405Z,17
2017-03-13T02:57:59.671Z,21
2017-03-13T03:07:59.627Z,20
2017-03-13T03:17:59.564Z,20
2017-03-13T03:27:59.297Z,21
2017-03-13T03:37:59.887Z,22
2017-03-13T03:47:59.456Z,22
2017-03-13T03:57:59.358Z,21
2017-03-13T04:07:59.460Z,21
2017-03-13T04:17:59.468Z,24
2017-03-13T04:27:59.458Z,21
2017-03-13T04:37:59.330Z,23
2017-03-13T04:47:59.471Z,21
2017-03-13T04:57:59.415Z,22
2017-03-13T05:07:59.519Z,23
2017-03-13T05:17:59.825Z,25
2017-03-13T05:27:59.430Z,24
2017-03-13T05:37:59.450Z,25
2017-03-13T05:47:59.778Z,23
2017-03-13T05:57:59.731Z,24
2017-03-13T06:07:59.424Z,24
2017-03-13T06:17:59.437Z,25
2017-03-13T06:27:59.509Z,25
2017-03-13T06:37:59.536Z,25
2017-03-13T06:47:59.480Z,34
2017-03-13T06:57:59.457Z,24
2017-03-13T07:07:59.485Z,22
2017-03-13T07:17:59.549Z,25
2017-03-13T07:27:59.527Z,25
2017-03-13T07:37:59.592Z,23
2017-03-13T07:47:59.751Z,20
2017-03-13T07:58:09.254Z,16
2017-03-13T08:07:59.605Z,13
2017-03-13T08:17:59.494Z,14
2017-03-13T08:27:59.624Z,19
2017-03-13T08:37:59.658Z,18
2017-03-13T08:47:59.896Z,16
2017-03-13T08:57:59.613Z,18
2017-03-13T09:07:59.472Z,14
2017-03-13T09:17:59.519Z,14
2017-03-13T09:27:59.693Z,13
2017-03-13T09:37:59.554Z,10
2017-03-13T09:47:59.725Z,15
2017-03-13T09:57:59.568Z,13
2017-03-13T10:07:59.665Z,15
2017-03-13T10:17:59.555Z,13
2017-03-13T10:27:59.642Z,13
2017-03-13T10:37:59.627Z,12
2017-03-13T10:47:59.692Z,14
2017-03-13T10:58:00.067Z,14
2017-03-13T11:07:59.644Z,15
2017-03-13T11:17:59.643Z,15
2017-03-13T11:27:59.806Z,14
2017-03-13T11:37:59.660Z,13
2017-03-13T11:47:59.772Z,13
2017-03-13T11:57:59.750Z,12
2017-03-13T12:07:59.685Z,14
2017-03-13T12:17:59.819Z,15
2017-03-13T12:27:59.684Z,14
2017-03-13T12:37:59.755Z,18
2017-03-13T12:47:59.711Z,16
2017-03-13T12:58:00.247Z,18
2017-03-13T13:07:59.886Z,18
2017-03-13T13:17:59.677Z,18
2017-03-13T13:27:59.714Z,20
2017-03-13T13:37:59.774Z,16
2017-03-13T13:47:59.811Z,16
2017-03-13T13:57:59.776Z,18
2017-03-13T14:07:59.852Z,18
2017-03-13T14:18:00.035Z,20
2017-03-13T14:28:00.229Z,21
2017-03-13T14:37:59.804Z,20
2017-03-13T14:47:59.791Z,18
2017-03-13T14:57:59.800Z,18
2017-03-13T15:07:59.868Z,15
2017-03-13T15:17:59.784Z,23
2017-03-13T15:27:59.831Z,20
2017-03-13T15:37:59.882Z,19
2017-03-13T15:47:59.983Z,24
2017-03-13T15:57:59.992Z,21
2017-03-13T16:08:00.501Z,24
2017-03-13T16:18:00.471Z,21
2017-03-13T16:27:59.943Z,26
2017-03-13T16:37:59.892Z,25
2017-03-13T16:48:00.005Z,27
2017-03-13T16:57:59.910Z,29
2017-03-13T17:08:00.013Z,32
2017-03-13T17:18:00.011Z,32
2017-03-13T17:27:59.969Z,35
2017-03-13T17:38:00.044Z,35
2017-03-13T17:48:00.105Z,37
2017-03-13T17:57:59.952Z,32
2017-03-13T18:08:00.076Z,41
2017-03-13T18:17:59.972Z,34
2017-03-13T18:28:00.117Z,38
2017-03-13T18:38:00.059Z,35
2017-03-13T18:48:00.118Z,36
2017-03-13T18:58:00.099Z,33
2017-03-13T19:08:00.016Z,35
2017-03-13T19:18:00.084Z,27
2017-03-13T19:28:00.152Z,22
2017-03-13T19:38:00.491Z,22
2017-03-13T19:48:00.116Z,20
2017-03-13T19:58:00.754Z,21
2017-03-13T20:08:00.099Z,23
2017-03-13T20:18:00.234Z,19
2017-03-13T20:28:00.180Z,20
2017-03-13T20:38:00.278Z,23
2017-03-13T20:48:00.238Z,24
2017-03-13T20:58:00.310Z,21
2017-03-13T21:08:00.266Z,24
2017-03-13T21:18:01.243Z,24
2017-03-13T21:28:02.560Z,24
2017-03-13T21:38:00.234Z,26
2017-03-13T21:48:00.251Z,30
2017-03-13T21:58:00.263Z,27
2017-03-13T22:08:00.423Z,30
2017-03-13T22:18:00.392Z,29
2017-03-13T22:28:00.345Z,29
2017-03-13T22:38:00.553Z,36
2017-03-13T22:48:00.371Z,31
2017-03-13T22:58:00.217Z,27
2017-03-13T23:08:00.337Z,28
2017-03-13T23:18:00.262Z,25
2017-03-13T23:28:00.348Z,29
2017-03-13T23:38:00.349Z,24
2017-03-13T23:48:00.460Z,28
2017-03-13T23:58:00.279Z,22
